logo
Rechercher aéroport 
image banner adimage banner adimage banner ad
image banner ad

FA0401 - Silver Water Holdings Helistop

Situé à , South Africa

ICAO - , IATA -

Données fournies par Airmate  

Information générale

Coordonnées: S25°16'44" E30°59'55"
Élévation : 3107 feet MSL.
 
Voir autres Aéroports à Mpumalanga

Données opérationnelles

Special qualification required
Heure actuelle UTC:
Heure actuelle locale:
METAR: FAKN 232100Z AUTO 36001KT //// // ////// 18/12 Q1025
Voir NOTAMs / SUP AIP / TFR affectant cet aéroport [VIEW]
Fréquences de communication: [VIEW]

Pistes:

Coordonnées de l'aéroport

Adresse: South Africa

Vue satellite de FA0401